createdAt,value
2018-08-24T00:00:10.590Z,99583.34
2018-08-24T00:05:14.404Z,99586.36
2018-08-24T00:10:18.156Z,99579.28
2018-08-24T00:15:21.981Z,99575.38
2018-08-24T00:20:25.800Z,99575.55
2018-08-24T00:25:29.612Z,99563.56
2018-08-24T00:30:33.503Z,99566.11
2018-08-24T00:35:37.308Z,99563.40
2018-08-24T00:40:41.134Z,99552.06
2018-08-24T00:45:44.873Z,99563.06
2018-08-24T00:50:48.735Z,99557.15
2018-08-24T00:55:52.589Z,99554.28
2018-08-24T01:01:02.683Z,99546.33
2018-08-24T01:06:06.655Z,99548.02
2018-08-24T01:11:10.459Z,99542.28
2018-08-24T01:16:19.425Z,99534.51
2018-08-24T01:21:23.207Z,99534.34
2018-08-24T01:26:27.005Z,99536.36
2018-08-24T01:31:30.802Z,99530.79
2018-08-24T01:36:34.595Z,99539.59
2018-08-24T01:41:38.401Z,99533.82
2018-08-24T01:46:42.210Z,99536.03
2018-08-24T01:51:45.937Z,99526.76
2018-08-24T01:56:49.707Z,99529.09
2018-08-24T02:01:53.514Z,99523.19
2018-08-24T02:06:57.443Z,99519.30
2018-08-24T02:12:01.191Z,99525.72
2018-08-24T02:17:07.530Z,99519.42
2018-08-24T02:22:17.157Z,99514.53
2018-08-24T02:27:21.020Z,99504.56
2018-08-24T02:32:24.747Z,99499.22
2018-08-24T02:37:29.919Z,99500.73
2018-08-24T02:42:33.699Z,99496.13
2018-08-24T02:47:37.556Z,99491.75
2018-08-24T02:52:41.324Z,99495.77
2018-08-24T02:57:45.120Z,99500.13
2018-08-24T03:02:48.999Z,99506.53
2018-08-24T03:07:52.784Z,99508.76
2018-08-24T03:12:56.598Z,99516.62
2018-08-24T03:18:00.351Z,99520.67
2018-08-24T03:23:04.166Z,99522.16
2018-08-24T03:28:07.866Z,99512.85
2018-08-24T03:33:11.686Z,99521.28
2018-08-24T03:38:15.477Z,99520.00
2018-08-24T03:43:19.480Z,99525.50
2018-08-24T03:48:23.251Z,99547.98
2018-08-24T03:53:27.009Z,99547.67
2018-08-24T03:58:30.770Z,99546.30
2018-08-24T04:03:34.578Z,99544.97
2018-08-24T04:08:38.403Z,99566.09
2018-08-24T04:13:42.209Z,99583.92
2018-08-24T04:18:45.990Z,99563.64
2018-08-24T04:23:49.890Z,99554.73
2018-08-24T04:28:53.665Z,99576.48
2018-08-24T04:33:57.419Z,99581.06
2018-08-24T04:39:01.271Z,99577.29
2018-08-24T04:44:05.074Z,99587.26
2018-08-24T04:49:08.958Z,99598.19
2018-08-24T04:54:12.700Z,99592.59
2018-08-24T04:59:16.459Z,99589.73
2018-08-24T05:04:20.227Z,99588.77
2018-08-24T05:09:24.080Z,99596.37
2018-08-24T05:14:27.863Z,99611.72
2018-08-24T05:19:31.719Z,99609.59
2018-08-24T05:24:35.479Z,99611.06
2018-08-24T05:29:39.255Z,99604.15
2018-08-24T05:34:43.085Z,99613.91
2018-08-24T05:39:46.901Z,99637.80
2018-08-24T05:44:50.732Z,99633.70
2018-08-24T05:49:54.561Z,99626.63
2018-08-24T05:54:58.379Z,99639.53
2018-08-24T06:00:04.127Z,99637.67
2018-08-24T06:05:08.756Z,99652.14
2018-08-24T06:10:12.670Z,99659.74
2018-08-24T06:15:16.723Z,99659.98
2018-08-24T06:20:21.681Z,99648.36
2018-08-24T06:25:25.512Z,99668.05
2018-08-24T06:30:29.311Z,99663.38
2018-08-24T06:35:33.074Z,99669.61
2018-08-24T06:40:36.788Z,99647.45
2018-08-24T06:45:40.626Z,99664.17
2018-08-24T06:50:44.426Z,99654.41
2018-08-24T06:55:48.232Z,99667.80
2018-08-24T07:00:52.093Z,99666.55
2018-08-24T07:05:55.965Z,99663.66
2018-08-24T07:10:59.699Z,99662.37
2018-08-24T07:16:03.425Z,99651.33
2018-08-24T07:21:07.186Z,99660.97
2018-08-24T07:26:11.091Z,99673.27
2018-08-24T07:31:14.981Z,99679.81
2018-08-24T07:36:18.776Z,99680.15
2018-08-24T07:41:22.644Z,99671.64
2018-08-24T07:46:26.458Z,99675.34
2018-08-24T07:51:30.286Z,99672.28
2018-08-24T07:56:34.115Z,99684.50
2018-08-24T08:01:37.841Z,99679.70
2018-08-24T08:06:41.708Z,99686.08
2018-08-24T08:11:45.410Z,99682.54
2018-08-24T08:16:53.214Z,99686.47
2018-08-24T08:21:57.484Z,99681.39
2018-08-24T08:27:01.213Z,99683.08
2018-08-24T08:32:04.976Z,99699.85
2018-08-24T08:37:08.702Z,99680.16
2018-08-24T08:42:12.378Z,99695.85
2018-08-24T08:47:16.281Z,99704.73
2018-08-24T08:52:20.002Z,99701.95
2018-08-24T08:57:24.991Z,99697.06
2018-08-24T09:02:34.080Z,99705.06
2018-08-24T09:07:46.823Z,99716.02
2018-08-24T09:12:50.703Z,99715.95
2018-08-24T09:17:59.687Z,99718.09
2018-08-24T09:23:08.682Z,99719.00
2018-08-24T09:28:17.758Z,99718.93
2018-08-24T09:33:21.615Z,99713.11
2018-08-24T09:38:25.384Z,99707.97
2018-08-24T09:43:35.317Z,99700.57
2018-08-24T09:48:44.720Z,99694.05
2018-08-24T09:53:55.224Z,99694.48
2018-08-24T09:59:00.034Z,99696.72
2018-08-24T10:04:09.117Z,99690.55
2018-08-24T10:09:14.804Z,99690.55
2018-08-24T10:14:41.426Z,99688.57
2018-08-24T10:19:45.239Z,99692.64
2018-08-24T10:24:51.762Z,99690.88
2018-08-24T10:37:59.864Z,99685.06
2018-08-24T10:43:13.900Z,99673.73
2018-08-24T10:48:17.658Z,99704.49
2018-08-24T10:53:21.359Z,99711.92
2018-08-24T10:58:25.163Z,99725.81
2018-08-24T11:03:29.104Z,99723.12
2018-08-24T11:08:33.088Z,99716.41
2018-08-24T11:13:37.990Z,99720.45
2018-08-24T11:18:41.665Z,99720.63
2018-08-24T11:23:45.679Z,99718.44
2018-08-24T11:28:50.281Z,99721.72
2018-08-24T11:33:54.359Z,99722.56
2018-08-24T11:38:58.192Z,99724.13
2018-08-24T11:44:02.381Z,99721.72
2018-08-24T11:49:06.193Z,99715.52
2018-08-24T11:54:09.954Z,99713.66
2018-08-24T11:59:13.641Z,99698.30
2018-08-24T12:04:17.737Z,99701.20
2018-08-24T12:09:22.599Z,99703.59
2018-08-24T12:14:26.721Z,99698.86
2018-08-24T12:19:30.477Z,99692.11
2018-08-24T12:24:34.148Z,99683.52
2018-08-24T12:29:37.910Z,99675.08
2018-08-24T12:34:41.808Z,99669.66
2018-08-24T12:39:47.801Z,99671.36
2018-08-24T12:44:51.620Z,99673.22
2018-08-24T12:49:55.515Z,99673.91
2018-08-24T12:54:59.357Z,99663.94
2018-08-24T13:00:06.122Z,99660.73
2018-08-24T13:05:10.281Z,99666.14
2018-08-24T13:10:14.331Z,99670.00
2018-08-24T13:15:18.227Z,99672.55
2018-08-24T13:20:22.584Z,99702.95
2018-08-24T13:25:26.216Z,99709.90
2018-08-24T13:30:30.116Z,99719.02
2018-08-24T13:35:34.723Z,99734.77
2018-08-24T13:40:42.280Z,99751.26
2018-08-24T13:45:46.009Z,99747.40
2018-08-24T13:50:56.553Z,99752.61
2018-08-24T13:56:00.413Z,99750.92
2018-08-24T14:01:04.155Z,99751.59
2018-08-24T14:06:08.086Z,99738.42
2018-08-24T14:11:11.867Z,99735.41
2018-08-24T14:16:15.533Z,99739.80
2018-08-24T14:21:19.251Z,99739.63
2018-08-24T14:26:22.874Z,99735.44
2018-08-24T14:31:26.769Z,99739.88
2018-08-24T14:36:30.439Z,99731.77
2018-08-24T14:41:34.259Z,99732.58
2018-08-24T14:46:37.968Z,99741.20
2018-08-24T14:51:41.830Z,99749.45
2018-08-24T14:56:45.743Z,99747.12
2018-08-24T15:01:49.683Z,99751.38
2018-08-24T15:06:53.806Z,99758.30
2018-08-24T15:11:57.533Z,99751.20
2018-08-24T15:17:01.931Z,99756.09
2018-08-24T15:22:05.946Z,99761.36
2018-08-24T15:27:09.563Z,99750.89
2018-08-24T15:32:13.271Z,99757.81
2018-08-24T15:37:17.463Z,99760.01
2018-08-24T15:42:23.004Z,99771.67
2018-08-24T15:47:26.748Z,99760.17
2018-08-24T15:52:30.578Z,99746.84
2018-08-24T15:57:34.607Z,99750.73
2018-08-24T16:02:43.559Z,99752.76
2018-08-24T16:07:47.454Z,99765.26
2018-08-24T16:12:53.137Z,99768.15
2018-08-24T16:28:53.802Z,99762.70
2018-08-24T16:33:57.494Z,99768.85
2018-08-24T16:39:01.101Z,99773.92
2018-08-24T16:44:06.122Z,99770.95
2018-08-24T16:49:09.715Z,99774.19
2018-08-24T16:54:13.670Z,99776.53
2018-08-24T16:59:17.494Z,99781.27
2018-08-24T17:04:21.236Z,99783.83
2018-08-24T17:09:24.846Z,99788.56
2018-08-24T17:14:28.483Z,99800.83
2018-08-24T17:19:32.988Z,99792.27
2018-08-24T17:24:36.638Z,99789.43
2018-08-24T17:29:40.300Z,99792.89
2018-08-24T17:34:43.994Z,99793.56
2018-08-24T17:39:47.687Z,99795.16
2018-08-24T17:44:51.464Z,99794.59
2018-08-24T17:49:55.275Z,99805.91
2018-08-24T17:54:58.938Z,99819.05
2018-08-24T18:00:03.072Z,99827.44
2018-08-24T18:05:06.775Z,99834.73
2018-08-24T18:10:10.482Z,99855.30
2018-08-24T18:15:14.279Z,99871.66
2018-08-24T18:20:17.888Z,99870.66
2018-08-24T18:25:21.705Z,99865.03
2018-08-24T18:30:25.412Z,99859.70
2018-08-24T18:35:29.150Z,99855.36
2018-08-24T18:40:32.928Z,99865.75
2018-08-24T18:45:36.923Z,99862.84
2018-08-24T18:50:40.711Z,99859.48
2018-08-24T19:06:49.666Z,99888.03
2018-08-24T19:17:35.482Z,99895.97
2018-08-24T19:22:44.338Z,99894.09
2018-08-24T19:40:47.729Z,99899.91
2018-08-24T20:02:40.003Z,99892.33
2018-08-24T20:07:48.844Z,99909.08
2018-08-24T20:12:55.516Z,99900.48
2018-08-24T20:17:59.472Z,99893.51
2018-08-24T20:23:05.080Z,99887.50
2018-08-24T20:28:08.999Z,99883.73
2018-08-24T20:33:13.554Z,99867.80
2018-08-24T20:38:17.417Z,99872.40
2018-08-24T20:43:21.237Z,99868.62
2018-08-24T20:48:24.998Z,99864.14
2018-08-24T20:53:28.873Z,99863.75
2018-08-24T20:58:32.735Z,99865.67
2018-08-24T21:03:38.332Z,99889.44
2018-08-24T21:08:42.145Z,99888.72
2018-08-24T21:13:46.465Z,99894.50
2018-08-24T21:18:50.231Z,99902.84
2018-08-24T21:23:53.982Z,99913.22
2018-08-24T21:28:57.789Z,99909.36
2018-08-24T21:34:01.550Z,99922.60
2018-08-24T21:39:09.685Z,99904.41
2018-08-24T21:44:13.690Z,99904.91
2018-08-24T21:49:18.451Z,99900.92
2018-08-24T21:54:22.332Z,99900.95
2018-08-24T21:59:26.124Z,99887.83
2018-08-24T22:04:29.887Z,99893.16
2018-08-24T22:09:34.680Z,99894.20
2018-08-24T22:14:38.576Z,99900.44
2018-08-24T22:19:42.497Z,99896.70
2018-08-24T22:24:46.385Z,99892.45
2018-08-24T22:29:50.219Z,99886.06
2018-08-24T22:34:54.016Z,99891.98
2018-08-24T22:39:57.802Z,99888.52
2018-08-24T22:45:03.201Z,99880.75
2018-08-24T22:50:08.271Z,99862.58
2018-08-24T22:55:13.009Z,99865.11
2018-08-24T23:00:16.842Z,99873.55
2018-08-24T23:05:20.602Z,99877.45
2018-08-24T23:10:24.428Z,99851.61
2018-08-24T23:15:28.229Z,99843.05
2018-08-24T23:20:32.153Z,99845.92
2018-08-24T23:25:35.993Z,99851.16
2018-08-24T23:30:39.859Z,99845.24
2018-08-24T23:35:43.645Z,99838.32
2018-08-24T23:40:47.527Z,99838.50
2018-08-24T23:45:51.342Z,99840.02
2018-08-24T23:50:55.198Z,99837.66
2018-08-24T23:55:58.994Z,99835.46
